Time;durP1;ratioP1;P1;durP2;ratioP2;P2;SDS_P1;SDS_P2;PMS_P1;PMS_P2;Temp;Humidity;BMP_temperature;BMP_pressure;BME280_temperature;BME280_humidity;BME280_pressure;Samples;Min_cycle;Max_cycle;Signal;HPM_P1;HPM_P2
2022/09/13 00:00:34;;;;;;;10.13;5.25;;;18.50;99.90;;;;;;6268134;22;20386;-83
2022/09/13 00:03:01;;;;;;;9.10;5.43;;;18.50;99.90;;;;;;6242602;22;20019;-83
2022/09/13 00:05:27;;;;;;;8.77;6.13;;;18.50;99.90;;;;;;6269014;22;20350;-84
2022/09/13 00:07:53;;;;;;;8.70;5.72;;;18.60;99.90;;;;;;6242182;22;20105;-84
2022/09/13 00:10:19;;;;;;;8.15;5.45;;;18.60;99.90;;;;;;6268613;22;20015;-84
2022/09/13 00:12:47;;;;;;;8.70;5.55;;;18.60;99.90;;;;;;6268198;22;20012;-84
2022/09/13 00:15:13;;;;;;;6.70;4.40;;;18.60;99.90;;;;;;6243522;22;20102;-84
2022/09/13 00:17:39;;;;;;;4.95;3.75;;;18.60;99.90;;;;;;6267856;22;20106;-83
2022/09/13 00:20:05;;;;;;;5.75;3.88;;;18.60;99.90;;;;;;6242117;22;20026;-84
2022/09/13 00:22:31;;;;;;;7.28;4.05;;;18.50;99.90;;;;;;6268426;22;20074;-84
2022/09/13 00:24:59;;;;;;;6.95;4.28;;;18.50;99.90;;;;;;6269135;22;20019;-83
2022/09/13 00:27:25;;;;;;;8.00;4.18;;;18.60;99.90;;;;;;6218879;22;20021;-84
2022/09/13 00:29:51;;;;;;;5.88;3.70;;;18.60;99.90;;;;;;6242930;22;20413;-83
2022/09/13 00:32:20;;;;;;;5.82;3.08;;;18.60;99.90;;;;;;6218807;22;20023;-84
2022/09/13 00:34:45;;;;;;;6.88;3.65;;;18.60;99.90;;;;;;6242534;22;20011;-84
2022/09/13 00:37:11;;;;;;;6.20;3.45;;;18.60;99.90;;;;;;6219182;22;20030;-84
2022/09/13 00:39:37;;;;;;;5.45;3.20;;;18.60;99.90;;;;;;6194327;22;20023;-83
2022/09/13 00:42:03;;;;;;;6.25;3.30;;;18.60;99.90;;;;;;6242822;22;20019;-85
2022/09/13 00:45:01;;;;;;;7.35;3.03;;;18.60;99.90;;;;;;6243546;22;20018;-84
2022/09/13 00:47:29;;;;;;;5.45;3.15;;;18.70;99.90;;;;;;6268403;22;20706;-85
2022/09/13 00:50:04;;;;;;;8.98;3.28;;;18.60;99.90;;;;;;6242477;22;20049;-84
2022/09/13 00:52:33;;;;;;;5.18;3.13;;;18.60;99.90;;;;;;6267561;22;20533;-85
2022/09/13 00:55:03;;;;;;;5.22;3.60;;;18.60;99.90;;;;;;6242545;22;20015;-84
2022/09/13 00:57:32;;;;;;;5.75;3.13;;;18.60;99.90;;;;;;6243637;22;20165;-84
2022/09/13 01:00:13;;;;;;;5.53;3.25;;;18.60;99.90;;;;;;6241705;22;20019;-85
2022/09/13 01:02:59;;;;;;;5.20;3.20;;;18.60;99.90;;;;;;6241495;22;20030;-84
2022/09/13 01:05:31;;;;;;;5.70;3.33;;;18.70;99.90;;;;;;6269615;22;20065;-83
2022/09/13 01:07:59;;;;;;;6.38;3.35;;;18.70;99.90;;;;;;6242084;22;20334;-84
2022/09/13 01:10:26;;;;;;;8.00;3.50;;;18.80;99.90;;;;;;6269464;22;20023;-85
2022/09/13 01:13:13;;;;;;;5.05;3.38;;;18.70;99.90;;;;;;6243016;22;20023;-84
2022/09/13 01:15:42;;;;;;;8.70;3.85;;;18.70;99.90;;;;;;6271328;22;20054;-84
2022/09/13 01:18:10;;;;;;;4.82;2.92;;;18.70;99.90;;;;;;6269417;22;20411;-84
2022/09/13 01:21:00;;;;;;;4.60;3.15;;;18.80;99.90;;;;;;6245670;22;20015;-84
2022/09/13 01:23:49;;;;;;;8.50;3.10;;;18.80;99.90;;;;;;6245529;22;20106;-84
2022/09/13 01:26:21;;;;;;;7.47;3.25;;;18.70;99.90;;;;;;6270517;22;20365;-84
2022/09/13 01:28:50;;;;;;;5.93;2.95;;;18.80;99.90;;;;;;6244152;22;20070;-84
2022/09/13 01:31:25;;;;;;;7.57;3.30;;;18.80;99.90;;;;;;6244237;22;20088;-84
2022/09/13 01:34:06;;;;;;;5.88;3.42;;;19.20;99.90;;;;;;6243073;22;20023;-84
2022/09/13 01:36:32;;;;;;;10.15;3.28;;;18.90;99.90;;;;;;6269010;22;20061;-84
2022/09/13 01:39:06;;;;;;;9.55;3.22;;;18.80;99.90;;;;;;6243791;22;20051;-84
2022/09/13 01:41:53;;;;;;;10.27;4.00;;;18.90;99.90;;;;;;6245393;22;20019;-84
2022/09/13 01:44:43;;;;;;;6.55;3.53;;;18.10;99.90;;;;;;6244179;22;20073;-85
2022/09/13 01:47:42;;;;;;;9.00;3.40;;;18.80;99.90;;;;;;6242941;22;20057;-84
2022/09/13 01:50:26;;;;;;;8.10;3.45;;;18.90;99.90;;;;;;6243338;22;20020;-84
2022/09/13 01:53:00;;;;;;;10.18;2.92;;;18.80;99.90;;;;;;6243086;22;20098;-84
2022/09/13 01:55:36;;;;;;;6.63;2.88;;;18.80;99.90;;;;;;6244807;22;20054;-83
2022/09/13 01:58:15;;;;;;;7.75;3.15;;;18.80;99.90;;;;;;6243424;22;20011;-85
2022/09/13 02:01:03;;;;;;;7.88;2.30;;;18.80;99.90;;;;;;6214314;22;20023;-84
2022/09/13 02:03:36;;;;;;;4.50;1.17;;;18.90;99.90;;;;;;6213951;22;20097;-83
2022/09/13 02:06:26;;;;;;;3.33;0.82;;;18.70;99.90;;;;;;6238401;22;20054;-84
2022/09/13 02:09:08;;;;;;;3.47;0.88;;;18.60;99.90;;;;;;6191594;22;20015;-85
2022/09/13 02:11:38;;;;;;;2.83;0.60;;;18.50;99.90;;;;;;6214588;22;20024;-84
2022/09/13 02:14:21;;;;;;;1.65;0.68;;;18.40;99.90;;;;;;6212870;22;20050;-84
2022/09/13 02:16:55;;;;;;;3.50;0.70;;;18.30;99.90;;;;;;6213472;22;20020;-84
2022/09/13 02:19:44;;;;;;;1.73;0.70;;;18.30;99.90;;;;;;6214239;22;20030;-84
2022/09/13 02:22:14;;;;;;;3.10;0.63;;;18.30;99.90;;;;;;6191694;22;20023;-84
2022/09/13 02:24:47;;;;;;;3.35;0.90;;;18.30;99.90;;;;;;6238104;22;20020;-84
2022/09/13 02:27:19;;;;;;;1.63;0.60;;;18.20;99.90;;;;;;6212953;22;20043;-84
2022/09/13 02:29:48;;;;;;;3.38;0.98;;;18.30;99.90;;;;;;6239792;22;20019;-84
2022/09/13 02:32:29;;;;;;;3.72;0.90;;;18.20;99.90;;;;;;6214047;22;20024;-84
2022/09/13 02:35:03;;;;;;;5.15;0.80;;;18.20;99.90;;;;;;6213074;22;20019;-84
2022/09/13 02:37:32;;;;;;;4.15;1.38;;;18.20;99.90;;;;;;6212920;22;20016;-85
2022/09/13 02:40:07;;;;;;;3.53;0.90;;;18.20;99.90;;;;;;6214010;22;20378;-84
2022/09/13 02:42:48;;;;;;;3.13;0.90;;;18.20;99.90;;;;;;6238482;22;20026;-84
2022/09/13 02:45:14;;;;;;;2.05;0.60;;;18.10;99.90;;;;;;6213769;22;20481;-84
2022/09/13 02:47:53;;;;;;;5.15;0.88;;;18.10;99.90;;;;;;6213910;22;20027;-84
2022/09/13 02:50:41;;;;;;;1.58;0.63;;;18.10;99.90;;;;;;6238388;22;20016;-85
2022/09/13 02:53:15;;;;;;;4.97;1.10;;;18.00;99.90;;;;;;6213127;22;20026;-84
2022/09/13 02:55:59;;;;;;;4.28;0.80;;;18.00;99.90;;;;;;6213774;22;20034;-84
2022/09/13 02:58:41;;;;;;;4.15;0.68;;;18.00;99.90;;;;;;6213452;22;20020;-83
2022/09/13 03:01:08;;;;;;;2.55;0.90;;;18.00;99.90;;;;;;6242991;22;20405;-84
2022/09/13 03:03:34;;;;;;;4.13;0.60;;;18.00;99.90;;;;;;6218759;22;20057;-84
2022/09/13 03:06:00;;;;;;;3.53;1.00;;;18.00;99.90;;;;;;6243800;22;20058;-84
2022/09/13 03:08:30;;;;;;;2.47;0.75;;;17.30;99.90;;;;;;6241820;22;20024;-84
2022/09/13 03:11:17;;;;;;;2.55;0.70;;;17.90;99.90;;;;;;6242614;22;20023;-84
2022/09/13 03:13:43;;;;;;;1.48;0.80;;;17.90;99.90;;;;;;6244022;22;20021;-84
2022/09/13 03:16:21;;;;;;;2.13;0.70;;;17.80;99.90;;;;;;6242586;22;20019;-84
2022/09/13 03:18:53;;;;;;;2.20;0.80;;;17.80;99.90;;;;;;6243473;22;20105;-84
2022/09/13 03:21:28;;;;;;;3.38;1.05;;;17.80;99.90;;;;;;6269017;22;20015;-84
2022/09/13 03:24:11;;;;;;;2.15;0.60;;;17.80;99.90;;;;;;6243433;22;20339;-84
2022/09/13 03:26:43;;;;;;;3.33;0.80;;;17.80;99.90;;;;;;6270096;22;20439;-84
2022/09/13 03:29:24;;;;;;;2.63;0.75;;;17.80;99.90;;;;;;6242904;22;20023;-84
2022/09/13 03:32:06;;;;;;;1.98;0.60;;;17.80;99.90;;;;;;6244264;22;20106;-85
2022/09/13 03:35:03;;;;;;;3.15;0.80;;;17.80;99.90;;;;;;6242817;22;20515;-83
2022/09/13 03:37:56;;;;;;;1.45;0.88;;;17.80;99.90;;;;;;6244153;22;20023;-82
2022/09/13 03:40:42;;;;;;;4.60;1.00;;;17.80;99.90;;;;;;6268729;22;20020;-84
2022/09/13 03:43:34;;;;;;;5.57;1.00;;;17.80;99.90;;;;;;6244237;22;20046;-84
2022/09/13 03:46:08;;;;;;;3.17;0.80;;;17.80;99.90;;;;;;6243495;22;20027;-84
2022/09/13 03:48:37;;;;;;;5.40;1.05;;;17.80;99.90;;;;;;6243693;22;20066;-84
2022/09/13 03:51:05;;;;;;;2.83;0.93;;;17.80;99.90;;;;;;6242830;22;20069;-84
2022/09/13 03:53:36;;;;;;;4.03;0.73;;;17.80;99.90;;;;;;6268857;22;20062;-84
2022/09/13 03:56:13;;;;;;;2.95;1.10;;;17.80;99.90;;;;;;6243017;22;20015;-84
2022/09/13 03:58:41;;;;;;;1.73;0.70;;;17.80;99.90;;;;;;6269251;22;20106;-84
2022/09/13 04:01:09;;;;;;;4.57;1.20;;;17.70;99.90;;;;;;6268551;22;20030;-85
2022/09/13 04:03:36;;;;;;;3.38;0.98;;;17.80;99.90;;;;;;6243372;22;20026;-85
2022/09/13 04:06:02;;;;;;;3.38;0.90;;;17.80;99.90;;;;;;6218295;22;20481;-84
2022/09/13 04:08:28;;;;;;;2.42;0.90;;;17.80;99.90;;;;;;6269389;22;20054;-84
2022/09/13 04:10:53;;;;;;;2.42;1.02;;;17.80;99.90;;;;;;6243233;22;20118;-85
2022/09/13 04:13:21;;;;;;;4.97;1.30;;;17.80;99.90;;;;;;6243000;22;20027;-85
2022/09/13 04:15:49;;;;;;;3.58;1.00;;;17.80;99.90;;;;;;6242846;22;20026;-84
2022/09/13 04:18:15;;;;;;;3.80;0.90;;;17.80;99.90;;;;;;6243230;22;20450;-84
2022/09/13 04:20:55;;;;;;;2.80;1.00;;;17.80;99.90;;;;;;6242196;22;20030;-84
2022/09/13 04:23:22;;;;;;;3.13;0.90;;;17.80;99.90;;;;;;6268409;22;20019;-84
2022/09/13 04:25:48;;;;;;;2.97;0.98;;;18.20;99.90;;;;;;6242522;22;20100;-84
2022/09/13 04:28:15;;;;;;;3.95;1.00;;;17.80;99.90;;;;;;6242971;22;20015;-85
2022/09/13 04:30:44;;;;;;;5.35;1.20;;;17.80;99.90;;;;;;6244112;22;20410;-85
2022/09/13 04:33:16;;;;;;;2.38;1.00;;;17.80;99.90;;;;;;6243296;22;20023;-85
2022/09/13 04:35:44;;;;;;;6.60;1.10;;;17.80;99.90;;;;;;6220580;22;20102;-85
2022/09/13 04:38:10;;;;;;;3.50;1.10;;;17.90;99.90;;;;;;6243945;22;20023;-84
2022/09/13 04:40:36;;;;;;;6.40;1.33;;;17.90;99.90;;;;;;6219543;22;20026;-85
2022/09/13 04:43:02;;;;;;;5.72;1.23;;;17.90;99.90;;;;;;6242773;22;20019;-84
2022/09/13 04:45:28;;;;;;;2.83;0.98;;;17.90;99.90;;;;;;6269399;22;20046;-84
2022/09/13 04:47:55;;;;;;;6.38;1.13;;;17.90;99.90;;;;;;6244719;22;20054;-84
2022/09/13 04:50:22;;;;;;;5.88;1.08;;;17.90;99.90;;;;;;6245106;22;20088;-84
2022/09/13 04:52:53;;;;;;;3.35;1.00;;;17.90;99.90;;;;;;6270495;22;20015;-84
2022/09/13 04:55:18;;;;;;;8.35;1.38;;;17.90;99.90;;;;;;6270221;22;20076;-84
2022/09/13 04:57:44;;;;;;;6.10;1.10;;;17.90;99.90;;;;;;6245213;22;20030;-84
2022/09/13 05:00:11;;;;;;;5.47;1.45;;;17.70;99.90;;;;;;6218235;22;20023;-84
2022/09/13 05:02:37;;;;;;;6.32;1.20;;;17.90;99.90;;;;;;6270108;22;20470;-84
2022/09/13 05:05:03;;;;;;;5.00;1.30;;;17.20;99.90;;;;;;6244118;22;20055;-85
2022/09/13 05:07:29;;;;;;;2.97;1.00;;;17.90;99.90;;;;;;6270674;22;20093;-85
2022/09/13 05:09:55;;;;;;;4.90;1.45;;;17.90;99.90;;;;;;6244449;22;20886;-85
2022/09/13 05:12:21;;;;;;;5.07;1.27;;;17.90;99.90;;;;;;6219491;22;20016;-84
2022/09/13 05:14:46;;;;;;;6.78;1.27;;;17.80;99.90;;;;;;6244567;22;20473;-84
2022/09/13 05:17:12;;;;;;;4.22;1.10;;;17.80;99.90;;;;;;6243728;22;20072;-84
2022/09/13 05:19:41;;;;;;;3.42;1.10;;;17.80;99.90;;;;;;6219802;22;20046;-85
2022/09/13 05:22:07;;;;;;;5.80;1.30;;;17.50;99.90;;;;;;6246738;22;20442;-85
2022/09/13 05:24:40;;;;;;;6.05;1.42;;;17.80;99.90;;;;;;6244691;22;20070;-84
2022/09/13 05:27:06;;;;;;;3.38;1.10;;;17.80;99.90;;;;;;6244232;22;20030;-85
2022/09/13 05:29:32;;;;;;;4.65;1.30;;;17.80;99.90;;;;;;6247822;22;20019;-84
2022/09/13 05:31:58;;;;;;;2.85;0.90;;;17.80;99.90;;;;;;6248334;22;20098;-85
2022/09/13 05:34:35;;;;;;;5.20;1.02;;;17.80;99.90;;;;;;6248446;22;20064;-85
2022/09/13 05:37:01;;;;;;;3.28;1.00;;;18.40;99.90;;;;;;6247382;22;20015;-85
2022/09/13 05:39:27;;;;;;;4.13;0.93;;;17.90;99.90;;;;;;6222154;22;20026;-85
2022/09/13 05:41:52;;;;;;;4.30;1.23;;;17.80;99.90;;;;;;6222216;22;20469;-85
2022/09/13 05:44:21;;;;;;;3.88;1.13;;;17.70;99.90;;;;;;6245879;22;20019;-84
2022/09/13 05:46:47;;;;;;;4.15;1.33;;;17.70;99.90;;;;;;6246355;22;20160;-85
2022/09/13 05:49:13;;;;;;;3.60;0.88;;;17.60;99.90;;;;;;6246534;22;20450;-84
2022/09/13 05:51:41;;;;;;;5.53;1.50;;;17.60;99.90;;;;;;6274283;22;20038;-89
2022/09/13 05:54:09;;;;;;;4.22;1.10;;;17.60;99.90;;;;;;6221722;22;20019;-87
2022/09/13 05:56:51;;;;;;;2.90;1.00;;;17.60;99.90;;;;;;6272453;22;20160;-86
2022/09/13 05:59:19;;;;;;;3.78;1.02;;;17.60;99.90;;;;;;6247290;22;20106;-86
2022/09/13 06:01:47;;;;;;;5.03;1.10;;;17.60;99.90;;;;;;6247754;22;20023;-85
2022/09/13 06:04:16;;;;;;;3.00;1.00;;;18.50;99.90;;;;;;6246509;22;20114;-88
2022/09/13 06:06:45;;;;;;;4.10;0.80;;;17.30;99.90;;;;;;6247251;22;20055;-85
2022/09/13 06:09:20;;;;;;;3.58;0.95;;;17.60;99.90;;;;;;6246443;22;20067;-86
2022/09/13 06:12:04;;;;;;;;;;;;;;;;;;;;;
2022/09/13 06:14:32;;;;;;;4.45;0.95;;;17.50;99.90;;;;;;6229348;22;20038;-87
2022/09/13 06:17:00;;;;;;;4.82;1.23;;;17.50;99.90;;;;;;6246697;22;20662;-87
2022/09/13 06:19:34;;;;;;;2.67;0.98;;;17.50;99.90;;;;;;6247355;22;20025;-89
2022/09/13 06:22:03;;;;;;;3.42;0.90;;;17.50;99.90;;;;;;6221903;22;20105;-91
2022/09/13 06:28:36;;;;;;;1.58;0.88;;;17.40;99.90;;;;;;6212576;23;20502;-91
2022/09/13 06:32:06;;;;;;;4.87;0.83;;;17.50;99.90;;;;;;6163667;23;20100;-92
2022/09/13 06:34:43;;;;;;;5.82;1.10;;;18.40;99.90;;;;;;6183936;23;20024;-88
2022/09/13 06:37:43;;;;;;;;;;;;;;;;;;;;;
2022/09/13 06:47:25;;;;;;;1.40;0.75;;;18.20;99.90;;;;;;6215032;22;20035;-87
2022/09/13 06:49:54;;;;;;;4.82;0.90;;;17.50;99.90;;;;;;6251369;22;20023;-87
2022/09/13 06:52:22;;;;;;;2.05;0.70;;;17.50;99.90;;;;;;6249884;22;20019;-86
2022/09/13 06:54:56;;;;;;;2.35;0.93;;;17.50;99.90;;;;;;6250847;22;20027;-87
2022/09/13 06:57:25;;;;;;;4.18;0.80;;;17.90;99.90;;;;;;6249972;22;20022;-85
2022/09/13 07:00:22;;;;;;;5.60;1.00;;;17.60;99.90;;;;;;6274251;22;20095;-92
2022/09/13 07:03:30;;;;;;;;;;;;;;;;;;;;;
2022/09/13 07:07:02;;;;;;;;;;;;;;;;;;;;;
2022/09/13 07:09:40;;;;;;;3.60;0.85;;;17.90;99.90;;;;;;6273550;22;20430;-86
2022/09/13 07:12:24;;;;;;;;;;;;;;;;;;;;;
2022/09/13 07:15:02;;;;;;;4.18;1.13;;;18.00;99.90;;;;;;6252360;22;20019;-89
2022/09/13 07:17:58;;;;;;;3.88;1.00;;;18.00;99.90;;;;;;6232645;22;20015;-88
2022/09/13 07:20:41;;;;;;;;;;;;;;;;;;;;;
2022/09/13 07:23:13;;;;;;;8.05;1.52;;;18.10;99.90;;;;;;6230631;22;20019;-88
2022/09/13 07:25:51;;;;;;;;;;;;;;;;;;;;;
2022/09/13 07:28:17;;;;;;;3.17;0.70;;;17.50;99.90;;;;;;6275281;22;20015;-85
2022/09/13 07:30:43;;;;;;;3.47;0.75;;;18.10;99.90;;;;;;6250271;22;20034;-85
2022/09/13 07:33:27;;;;;;;5.57;1.10;;;18.40;99.90;;;;;;6249533;22;20019;-84
2022/09/13 07:36:01;;;;;;;4.40;0.80;;;17.80;99.90;;;;;;6248611;22;20112;-83
2022/09/13 07:38:27;;;;;;;3.92;1.00;;;18.30;99.90;;;;;;6249379;22;20015;-85
2022/09/13 07:40:57;;;;;;;4.90;1.15;;;18.30;99.90;;;;;;6250201;22;20160;-85
2022/09/13 07:43:27;;;;;;;4.82;0.82;;;18.50;99.90;;;;;;6248538;22;20456;-87
2022/09/13 07:46:14;;;;;;;4.63;0.90;;;18.60;99.90;;;;;;6225815;22;20484;-84
2022/09/13 07:48:42;;;;;;;2.88;0.73;;;18.80;99.90;;;;;;6249877;22;20019;-84
2022/09/13 07:51:19;;;;;;;6.72;1.27;;;18.90;99.90;;;;;;6249937;22;20403;-84
2022/09/13 07:53:46;;;;;;;5.10;1.23;;;18.90;99.90;;;;;;6274619;22;20015;-84
2022/09/13 07:56:15;;;;;;;6.68;1.15;;;19.00;99.90;;;;;;6249631;22;20324;-84
2022/09/13 07:58:46;;;;;;;4.65;1.00;;;19.10;99.90;;;;;;6250163;22;20023;-86
2022/09/13 08:01:18;;;;;;;4.32;0.95;;;19.20;99.90;;;;;;6275328;22;20474;-86
2022/09/13 08:03:49;;;;;;;2.88;0.60;;;19.40;99.90;;;;;;6249305;22;20046;-85
2022/09/13 08:06:22;;;;;;;2.20;0.70;;;19.50;99.90;;;;;;6249487;22;20016;-86
2022/09/13 08:08:48;;;;;;;2.83;0.70;;;19.60;99.90;;;;;;6249268;22;20015;-86
2022/09/13 08:11:22;;;;;;;3.67;0.82;;;18.80;99.90;;;;;;6224287;22;20041;-87
2022/09/13 08:13:51;;;;;;;3.35;1.00;;;20.00;99.90;;;;;;6249407;22;20072;-85
2022/09/13 08:16:23;;;;;;;3.75;0.80;;;20.20;99.90;;;;;;6253430;22;20023;-85
2022/09/13 08:18:51;;;;;;;3.22;0.82;;;19.90;99.90;;;;;;6252603;22;20019;-85
2022/09/13 08:21:20;;;;;;;2.97;0.75;;;20.50;99.90;;;;;;6276773;22;20023;-85
2022/09/13 08:23:46;;;;;;;2.67;0.68;;;21.10;99.90;;;;;;6276984;22;20018;-85
2022/09/13 08:26:13;;;;;;;3.67;1.02;;;20.70;99.90;;;;;;6276019;22;20093;-84
2022/09/13 08:28:40;;;;;;;4.78;0.77;;;20.70;99.90;;;;;;6249608;22;20050;-85
2022/09/13 08:31:09;;;;;;;4.72;1.10;;;21.70;99.90;;;;;;6250406;22;20050;-84
2022/09/13 08:33:38;;;;;;;4.60;1.00;;;21.00;99.90;;;;;;6249859;22;20477;-86
2022/09/13 08:36:04;;;;;;;4.28;0.80;;;21.20;99.90;;;;;;6249980;22;20025;-85
2022/09/13 08:38:36;;;;;;;3.05;1.00;;;21.30;99.90;;;;;;6224763;22;20027;-90
2022/09/13 08:41:40;;;;;;;2.63;0.80;;;21.60;99.90;;;;;;6273468;22;20717;-87
2022/09/13 08:44:29;;;;;;;5.88;1.55;;;21.80;99.90;;;;;;6190511;22;20022;-86
2022/09/13 08:47:13;;;;;;;4.47;0.85;;;21.90;99.90;;;;;;6249919;22;20019;-87
2022/09/13 08:49:49;;;;;;;5.78;0.93;;;21.60;99.90;;;;;;6274610;22;20051;-85
2022/09/13 08:52:36;;;;;;;3.20;0.80;;;21.10;99.90;;;;;;6249633;22;20106;-86
2022/09/13 08:55:18;;;;;;;2.72;0.77;;;21.40;99.90;;;;;;6251742;22;20339;-87
2022/09/13 08:58:31;;;;;;;3.90;0.80;;;21.40;99.90;;;;;;6251731;22;20351;-87
2022/09/13 09:01:13;;;;;;;4.18;0.80;;;21.50;99.90;;;;;;6204154;22;20054;-86
2022/09/13 09:04:27;;;;;;;3.08;0.93;;;21.60;99.90;;;;;;6246258;22;20375;-86
2022/09/13 09:07:21;;;;;;;3.60;0.80;;;21.70;99.90;;;;;;6236285;22;20022;-86
2022/09/13 09:10:05;;;;;;;4.45;1.00;;;21.80;99.90;;;;;;6262487;22;20015;-89
2022/09/13 09:12:43;;;;;;;4.40;0.93;;;22.00;99.90;;;;;;6244545;22;20308;-87
2022/09/13 09:15:32;;;;;;;4.90;0.70;;;22.00;99.90;;;;;;6272461;22;20043;-86
2022/09/13 09:18:34;;;;;;;2.22;0.63;;;22.20;99.90;;;;;;6272720;22;20035;-86
2022/09/13 09:21:12;;;;;;;1.80;0.77;;;22.50;99.90;;;;;;6247316;22;20063;-91
2022/09/13 09:23:54;;;;;;;4.38;1.02;;;22.70;99.90;;;;;;6245498;22;20047;-86
2022/09/13 09:26:29;;;;;;;4.32;1.15;;;22.90;99.90;;;;;;6245756;22;20059;-86
2022/09/13 09:29:20;;;;;;;4.72;1.17;;;23.10;99.90;;;;;;6245036;22;20427;-87
2022/09/13 09:32:23;;;;;;;3.97;0.95;;;23.20;99.90;;;;;;6270734;22;20019;-83
2022/09/13 09:35:11;;;;;;;4.30;0.90;;;23.10;99.90;;;;;;6245038;22;20023;-86
2022/09/13 09:37:40;;;;;;;5.20;0.98;;;23.60;99.90;;;;;;6270154;22;20050;-85
2022/09/13 09:40:21;;;;;;;;;;;;;;;;;;;;;
2022/09/13 09:42:48;;;;;;;4.88;0.95;;;23.80;99.90;;;;;;6268527;22;20015;-85
2022/09/13 09:45:28;;;;;;;3.15;0.80;;;23.80;99.90;;;;;;6242799;22;20019;-85
2022/09/13 09:48:05;;;;;;;5.90;0.80;;;23.90;99.90;;;;;;6267093;22;20089;-86
2022/09/13 09:50:46;;;;;;;3.53;0.85;;;24.00;99.90;;;;;;6240318;22;20019;-86
2022/09/13 09:53:28;;;;;;;2.97;0.90;;;24.20;99.90;;;;;;6265437;22;20024;-86
2022/09/13 09:56:24;;;;;;;3.28;0.80;;;23.60;99.90;;;;;;6265866;22;20015;-85
2022/09/13 09:58:56;;;;;;;4.68;0.80;;;24.00;99.90;;;;;;6237366;22;20016;-85
2022/09/13 10:01:38;;;;;;;2.20;0.60;;;23.90;99.90;;;;;;6215774;22;20126;-85
2022/09/13 10:04:11;;;;;;;1.85;0.60;;;23.90;99.90;;;;;;6217559;22;20019;-84
2022/09/13 10:06:42;;;;;;;3.15;0.80;;;24.00;99.90;;;;;;6217769;22;20073;-86
2022/09/13 10:09:15;;;;;;;2.65;0.60;;;24.10;99.80;;;;;;6192899;22;20103;-85
2022/09/13 10:11:56;;;;;;;3.20;0.68;;;24.20;99.70;;;;;;6243284;22;20439;-87
2022/09/13 10:14:42;;;;;;;2.50;0.88;;;24.00;99.00;;;;;;6219197;22;20053;-86
2022/09/13 10:17:25;;;;;;;2.83;0.65;;;24.20;99.10;;;;;;6217813;22;20020;-86
2022/09/13 10:20:25;;;;;;;4.32;0.80;;;24.30;98.90;;;;;;6219260;22;20016;-87
2022/09/13 10:23:15;;;;;;;2.83;0.77;;;24.50;98.70;;;;;;6211008;22;20736;-88
2022/09/13 10:26:01;;;;;;;3.42;0.70;;;24.60;98.80;;;;;;6244687;22;20015;-85
2022/09/13 10:28:28;;;;;;;4.13;0.80;;;24.60;97.70;;;;;;6243692;22;20082;-86
2022/09/13 10:31:54;;;;;;;;;;;;;;;;;;;;;
2022/09/13 10:34:42;;;;;;;2.95;0.77;;;25.00;96.90;;;;;;6202241;22;20035;-90
2022/09/13 10:37:53;;;;;;;;;;;;;;;;;;;;;
2022/09/13 10:43:44;;;;;;;2.95;0.73;;;25.50;96.20;;;;;;6230455;22;20075;-89
2022/09/13 10:46:43;;;;;;;;;;;;;;;;;;;;;
2022/09/13 10:52:52;;;;;;;3.53;0.80;;;25.90;93.50;;;;;;6229059;22;20027;-91
2022/09/13 10:55:21;;;;;;;3.45;0.80;;;25.90;94.40;;;;;;6222658;22;20030;-89
2022/09/13 10:58:27;;;;;;;;;;;;;;;;;;;;;
2022/09/13 11:01:17;;;;;;;2.60;0.93;;;26.20;94.30;;;;;;6284453;22;20504;-89
2022/09/13 11:04:02;;;;;;;4.35;1.08;;;26.30;95.20;;;;;;6253819;22;20019;-88
2022/09/13 11:07:08;;;;;;;6.57;1.35;;;26.00;95.40;;;;;;6255323;22;20027;-88
2022/09/13 11:09:43;;;;;;;6.18;1.08;;;25.80;95.60;;;;;;6281737;22;20599;-87
2022/09/13 11:12:47;;;;;;;3.03;0.70;;;25.80;95.80;;;;;;6259830;22;20026;-90
2022/09/13 11:15:42;;;;;;;5.10;0.80;;;25.80;95.10;;;;;;6259613;22;20015;-89
2022/09/13 11:18:51;;;;;;;;;;;;;;;;;;;;;
2022/09/13 11:22:01;;;;;;;5.28;0.88;;;25.70;94.80;;;;;;6281185;22;20098;-89
2022/09/13 11:24:52;;;;;;;5.72;1.30;;;25.60;95.30;;;;;;6239775;22;20026;-90
2022/09/13 11:27:24;;;;;;;3.15;0.95;;;25.60;94.80;;;;;;6252841;22;20074;-88
2022/09/13 11:30:10;;;;;;;;;;;;;;;;;;;;;
2022/09/13 11:33:13;;;;;;;4.75;1.08;;;25.70;94.90;;;;;;6278321;22;20094;-90
2022/09/13 11:36:23;;;;;;;3.22;0.90;;;25.70;94.00;;;;;;6254975;22;20360;-88
2022/09/13 11:39:06;;;;;;;2.67;0.90;;;25.50;94.40;;;;;;6252576;22;20212;-88
2022/09/13 11:41:41;;;;;;;5.65;1.10;;;25.30;94.60;;;;;;6275520;22;20016;-87
2022/09/13 11:44:48;;;;;;;3.80;0.98;;;25.40;93.60;;;;;;6251136;22;20088;-87
2022/09/13 11:47:51;;;;;;;5.78;0.95;;;25.50;94.40;;;;;;6274803;22;20019;-88
2022/09/13 11:50:20;;;;;;;3.03;1.08;;;25.40;93.60;;;;;;6251958;22;20015;-87
2022/09/13 11:53:11;;;;;;;5.28;1.10;;;25.60;94.40;;;;;;6274906;22;20019;-88
2022/09/13 11:56:07;;;;;;;2.95;1.00;;;25.80;94.10;;;;;;6207748;22;20015;-88
2022/09/13 11:58:37;;;;;;;4.43;1.25;;;25.40;93.40;;;;;;6249499;22;20101;-87
2022/09/13 12:01:16;;;;;;;3.95;1.00;;;25.90;93.70;;;;;;6247285;22;20026;-89
2022/09/13 12:03:58;;;;;;;3.65;0.88;;;25.90;93.00;;;;;;6218881;22;20026;-88
2022/09/13 12:06:38;;;;;;;4.45;1.35;;;25.50;93.40;;;;;;6219381;22;20058;-87
2022/09/13 12:09:22;;;;;;;3.67;0.90;;;25.40;93.00;;;;;;6219373;22;20023;-86
2022/09/13 12:12:14;;;;;;;3.05;1.00;;;25.10;92.60;;;;;;6243987;22;20105;-87
2022/09/13 12:15:02;;;;;;;3.67;0.85;;;25.00;92.70;;;;;;6218841;22;20066;-87
2022/09/13 12:17:41;;;;;;;5.68;1.00;;;24.40;93.20;;;;;;6219691;22;20023;-88
2022/09/13 12:20:32;;;;;;;3.67;0.93;;;24.50;93.10;;;;;;6219413;22;20073;-87
2022/09/13 12:23:10;;;;;;;4.60;1.05;;;24.50;93.40;;;;;;6162079;22;20091;-88
2022/09/13 12:26:08;;;;;;;4.25;1.05;;;24.50;93.70;;;;;;6218732;22;20336;-88
2022/09/13 12:28:56;;;;;;;5.15;1.27;;;24.40;93.90;;;;;;6201256;22;20027;-87
2022/09/13 12:31:28;;;;;;;3.67;0.90;;;24.00;93.10;;;;;;6219032;22;20022;-87
2022/09/13 12:33:57;;;;;;;4.53;0.80;;;24.20;94.40;;;;;;6190911;22;20039;-86
2022/09/13 12:36:48;;;;;;;6.60;0.98;;;24.20;94.30;;;;;;6190901;22;20024;-88
2022/09/13 12:39:32;;;;;;;3.22;1.15;;;24.30;94.40;;;;;;6218055;22;20394;-87
2022/09/13 12:42:01;;;;;;;3.15;1.15;;;24.60;94.10;;;;;;6215067;22;20058;-88
2022/09/13 12:45:04;;;;;;;3.85;0.85;;;23.90;93.40;;;;;;6216339;22;20094;-87
2022/09/13 12:47:52;;;;;;;4.18;1.00;;;25.10;93.10;;;;;;6215298;22;20020;-87
2022/09/13 12:51:05;;;;;;;4.22;1.10;;;25.40;92.90;;;;;;6215637;22;20423;-87
2022/09/13 12:53:34;;;;;;;3.90;1.10;;;25.60;92.50;;;;;;6188966;22;20016;-88
2022/09/13 12:56:08;;;;;;;4.20;0.90;;;26.00;92.80;;;;;;6242927;22;20095;-87
2022/09/13 12:58:55;;;;;;;5.05;1.05;;;25.60;92.70;;;;;;6217581;22;20073;-89
2022/09/13 13:01:26;;;;;;;6.25;1.23;;;25.30;91.60;;;;;;6245736;22;20023;-86
2022/09/13 13:04:14;;;;;;;3.03;0.90;;;25.30;92.50;;;;;;6246813;22;20029;-88
2022/09/13 13:06:50;;;;;;;4.05;1.10;;;25.40;92.60;;;;;;6245845;22;20023;-88
2022/09/13 13:09:24;;;;;;;5.97;1.35;;;25.60;92.40;;;;;;6272497;22;20020;-84
2022/09/13 13:11:53;;;;;;;5.45;1.20;;;25.80;92.20;;;;;;6245845;22;20020;-83
2022/09/13 13:14:40;;;;;;;3.88;0.85;;;26.10;91.70;;;;;;6247579;22;20015;-84
2022/09/13 13:17:34;;;;;;;3.88;0.90;;;26.20;91.40;;;;;;6275224;22;20027;-86
2022/09/13 13:20:39;;;;;;;3.67;0.90;;;26.30;90.50;;;;;;6246785;22;20027;-85
2022/09/13 13:23:28;;;;;;;5.38;1.10;;;26.40;91.00;;;;;;6246970;22;20145;-84
2022/09/13 13:26:22;;;;;;;3.38;0.80;;;26.60;89.90;;;;;;6246299;22;20101;-84
2022/09/13 13:28:51;;;;;;;3.97;0.90;;;26.90;90.90;;;;;;6270623;22;20020;-84
2022/09/13 13:31:23;;;;;;;3.05;0.85;;;27.20;90.30;;;;;;6270600;22;20019;-86
2022/09/13 13:33:58;;;;;;;7.57;1.13;;;27.40;89.50;;;;;;6246376;22;20019;-84
2022/09/13 13:36:52;;;;;;;4.43;1.15;;;27.30;88.10;;;;;;6245851;22;20027;-86
2022/09/13 13:39:26;;;;;;;5.53;1.23;;;27.20;88.30;;;;;;6270484;22;20482;-84
2022/09/13 13:42:22;;;;;;;2.30;0.70;;;26.80;87.70;;;;;;6244733;22;20126;-84
2022/09/13 13:45:16;;;;;;;;;;;;;;;;;;;;;
2022/09/13 13:48:45;;;;;;;3.30;0.90;;;26.60;88.10;;;;;;6298029;22;20015;-85
2022/09/13 13:51:53;;;;;;;5.20;1.13;;;25.90;87.80;;;;;;6126328;23;20027;-86
2022/09/13 13:54:42;;;;;;;;;;;;;;;;;;;;;
2022/09/13 14:01:23;;;;;;;3.55;0.80;;;27.10;86.70;;;;;;6265452;22;20034;-84
2022/09/13 14:04:18;;;;;;;2.97;0.98;;;26.40;88.80;;;;;;6245497;22;20496;-85
2022/09/13 14:07:32;;;;;;;;;;;;;;;;;;;;;
2022/09/13 14:10:45;;;;;;;2.92;0.63;;;27.20;85.40;;;;;;6299054;22;20791;-85
2022/09/13 14:14:03;;;;;;;;;;;;;;;;;;;;;
2022/09/13 14:17:13;;;;;;;5.30;0.98;;;26.10;85.70;;;;;;6301740;22;20023;-87
2022/09/13 14:20:46;;;;;;;;;;;;;;;;;;;;;
2022/09/13 14:29:58;;;;;;;4.22;1.30;;;25.40;87.40;;;;;;6244114;22;20473;-87
2022/09/13 14:32:47;;;;;;;3.95;1.00;;;25.40;88.20;;;;;;6247144;22;20438;-86
2022/09/13 14:35:45;;;;;;;3.13;1.00;;;25.60;88.20;;;;;;6248084;22;20012;-87
2022/09/13 14:38:31;;;;;;;2.00;0.50;;;25.80;86.70;;;;;;6195659;22;20015;-87